createdAt,value
2023-05-10T00:00:10.094Z,100.00
2023-05-10T00:02:36.897Z,100.00
2023-05-10T00:05:03.740Z,100.00
2023-05-10T00:07:30.181Z,100.00
2023-05-10T00:09:56.603Z,100.00
2023-05-10T00:12:23.141Z,100.00
2023-05-10T00:14:49.503Z,100.00
2023-05-10T00:17:16.044Z,100.00
2023-05-10T00:19:42.483Z,100.00
2023-05-10T00:22:08.909Z,100.00
2023-05-10T00:24:35.476Z,100.00
2023-05-10T00:27:01.937Z,100.00
2023-05-10T00:29:29.327Z,100.00
2023-05-10T00:31:55.825Z,100.00
2023-05-10T00:34:22.275Z,100.00
2023-05-10T00:36:48.828Z,100.00
2023-05-10T00:39:15.402Z,100.00
2023-05-10T00:41:41.789Z,100.00
2023-05-10T00:44:08.251Z,100.00
2023-05-10T00:46:35.465Z,100.00
2023-05-10T00:49:02.159Z,100.00
2023-05-10T00:51:28.836Z,100.00
2023-05-10T00:53:57.000Z,100.00
2023-05-10T00:56:25.382Z,100.00
2023-05-10T00:58:51.982Z,100.00
2023-05-10T01:01:18.505Z,100.00
2023-05-10T01:03:45.380Z,100.00
2023-05-10T01:06:12.263Z,100.00
2023-05-10T01:08:38.799Z,100.00
2023-05-10T01:11:05.318Z,100.00
2023-05-10T01:13:37.154Z,100.00
2023-05-10T01:16:04.438Z,100.00
2023-05-10T01:18:34.066Z,100.00
2023-05-10T01:21:13.216Z,100.00
2023-05-10T01:24:18.625Z,100.00
2023-05-10T01:26:51.648Z,100.00
2023-05-10T01:30:14.637Z,100.00
2023-05-10T01:32:58.784Z,100.00
2023-05-10T01:35:28.309Z,100.00
2023-05-10T01:38:16.302Z,100.00
2023-05-10T01:41:03.229Z,100.00
2023-05-10T01:43:37.994Z,100.00
2023-05-10T01:46:11.960Z,100.00
2023-05-10T01:48:48.491Z,100.00
2023-05-10T01:51:23.899Z,100.00
2023-05-10T01:53:52.655Z,100.00
2023-05-10T01:56:24.981Z,100.00
2023-05-10T01:58:52.812Z,100.00
2023-05-10T02:01:22.475Z,100.00
2023-05-10T02:03:51.897Z,100.00
2023-05-10T02:06:23.041Z,100.00
2023-05-10T02:08:51.477Z,100.00
2023-05-10T02:11:19.350Z,100.00
2023-05-10T02:13:48.358Z,100.00
2023-05-10T02:16:17.247Z,100.00
2023-05-10T02:18:44.141Z,100.00
2023-05-10T02:21:11.822Z,100.00
2023-05-10T02:23:38.959Z,100.00
2023-05-10T02:26:07.194Z,100.00
2023-05-10T02:28:36.091Z,100.00
2023-05-10T02:31:03.553Z,100.00
2023-05-10T02:33:32.517Z,100.00
2023-05-10T02:36:00.003Z,100.00
2023-05-10T02:38:27.770Z,100.00
2023-05-10T02:40:55.052Z,100.00
2023-05-10T02:43:24.110Z,100.00
2023-05-10T02:45:50.741Z,100.00
2023-05-10T02:48:17.776Z,100.00
2023-05-10T02:50:46.185Z,100.00
2023-05-10T02:53:17.422Z,100.00
2023-05-10T02:55:50.148Z,100.00
2023-05-10T02:58:16.570Z,100.00
2023-05-10T03:00:42.955Z,100.00
2023-05-10T03:03:09.410Z,100.00
2023-05-10T03:05:35.965Z,100.00
2023-05-10T03:08:05.093Z,100.00
2023-05-10T03:10:33.486Z,100.00
2023-05-10T03:13:17.537Z,100.00
2023-05-10T03:15:57.836Z,100.00
2023-05-10T03:18:30.576Z,100.00
2023-05-10T03:21:02.716Z,100.00
2023-05-10T03:23:36.744Z,100.00
2023-05-10T03:26:03.907Z,100.00
2023-05-10T03:28:31.621Z,100.00
2023-05-10T03:30:59.842Z,100.00
2023-05-10T03:33:26.367Z,100.00
2023-05-10T03:35:52.999Z,100.00
2023-05-10T03:38:19.465Z,100.00
2023-05-10T03:40:46.034Z,100.00
2023-05-10T03:43:12.372Z,100.00
2023-05-10T03:45:38.880Z,100.00
2023-05-10T03:48:06.073Z,100.00
2023-05-10T03:50:32.638Z,100.00
2023-05-10T03:52:59.115Z,100.00
2023-05-10T03:55:25.752Z,100.00
2023-05-10T03:57:52.171Z,100.00
2023-05-10T04:00:18.953Z,100.00
2023-05-10T04:02:46.334Z,100.00
2023-05-10T04:05:13.591Z,100.00
2023-05-10T04:07:40.255Z,100.00
2023-05-10T04:10:07.378Z,100.00
2023-05-10T04:12:33.823Z,100.00
2023-05-10T04:15:00.404Z,100.00
2023-05-10T04:17:26.821Z,100.00
2023-05-10T04:19:55.558Z,100.00
2023-05-10T04:22:22.008Z,100.00
2023-05-10T04:24:48.419Z,100.00
2023-05-10T04:27:15.286Z,100.00
2023-05-10T04:29:42.460Z,100.00
2023-05-10T04:32:09.009Z,100.00
2023-05-10T04:34:35.404Z,100.00
2023-05-10T04:37:01.959Z,100.00
2023-05-10T04:39:28.371Z,100.00
2023-05-10T04:41:54.784Z,100.00
2023-05-10T04:44:21.218Z,100.00
2023-05-10T04:46:47.784Z,100.00
2023-05-10T04:49:15.281Z,100.00
2023-05-10T04:51:41.718Z,100.00
2023-05-10T04:54:08.105Z,100.00
2023-05-10T04:56:34.809Z,100.00
2023-05-10T04:59:01.416Z,100.00
2023-05-10T05:01:28.048Z,100.00
2023-05-10T05:03:54.748Z,100.00
2023-05-10T05:06:25.806Z,100.00
2023-05-10T05:08:52.436Z,100.00
2023-05-10T05:11:18.988Z,100.00
2023-05-10T05:13:45.457Z,100.00
2023-05-10T05:16:12.418Z,100.00
2023-05-10T05:18:39.225Z,100.00
2023-05-10T05:21:16.070Z,100.00
2023-05-10T05:23:42.479Z,100.00
2023-05-10T05:26:09.304Z,100.00
2023-05-10T05:28:38.156Z,100.00
2023-05-10T05:31:05.674Z,100.00
2023-05-10T05:33:32.347Z,100.00
2023-05-10T05:36:01.736Z,100.00
2023-05-10T05:38:28.135Z,100.00
2023-05-10T05:40:54.487Z,100.00
2023-05-10T05:43:20.817Z,100.00
2023-05-10T05:45:47.328Z,100.00
2023-05-10T05:48:13.735Z,100.00
2023-05-10T05:50:40.114Z,100.00
2023-05-10T05:53:06.536Z,100.00
2023-05-10T05:55:33.100Z,100.00
2023-05-10T05:57:59.588Z,100.00
2023-05-10T06:00:26.781Z,100.00
2023-05-10T06:02:53.336Z,100.00
2023-05-10T06:05:21.170Z,100.00
2023-05-10T06:07:47.613Z,100.00
2023-05-10T06:10:14.186Z,100.00
2023-05-10T06:12:40.648Z,100.00
2023-05-10T06:15:07.738Z,100.00
2023-05-10T06:17:34.235Z,100.00
2023-05-10T06:20:00.675Z,100.00
2023-05-10T06:22:27.082Z,100.00
2023-05-10T06:24:53.689Z,100.00
2023-05-10T06:27:20.098Z,100.00
2023-05-10T06:29:46.526Z,100.00
2023-05-10T06:32:12.915Z,100.00
2023-05-10T06:34:39.339Z,100.00
2023-05-10T06:37:05.882Z,100.00
2023-05-10T06:39:32.265Z,100.00
2023-05-10T06:41:58.697Z,100.00
2023-05-10T06:44:25.150Z,100.00
2023-05-10T06:46:53.517Z,100.00
2023-05-10T06:49:20.055Z,100.00
2023-05-10T06:51:46.488Z,100.00
2023-05-10T06:54:12.841Z,100.00
2023-05-10T06:56:39.438Z,100.00
2023-05-10T06:59:05.970Z,100.00
2023-05-10T07:01:32.406Z,100.00
2023-05-10T07:03:58.857Z,100.00
2023-05-10T07:06:33.306Z,100.00
2023-05-10T07:09:01.324Z,100.00
2023-05-10T07:11:27.952Z,100.00
2023-05-10T07:13:54.293Z,100.00
2023-05-10T07:16:20.957Z,100.00
2023-05-10T07:18:47.362Z,100.00
2023-05-10T07:21:13.888Z,100.00
2023-05-10T07:23:41.311Z,100.00
2023-05-10T07:26:08.694Z,100.00
2023-05-10T07:28:37.638Z,100.00
2023-05-10T07:31:04.340Z,100.00
2023-05-10T07:33:30.741Z,100.00
2023-05-10T07:35:57.420Z,100.00
2023-05-10T07:38:24.351Z,100.00
2023-05-10T07:40:50.717Z,100.00
2023-05-10T07:43:17.146Z,100.00
2023-05-10T07:45:44.189Z,100.00
2023-05-10T07:48:10.892Z,100.00
2023-05-10T07:50:37.389Z,100.00
2023-05-10T07:53:03.789Z,100.00
2023-05-10T07:55:30.626Z,100.00
2023-05-10T07:57:57.749Z,100.00
2023-05-10T08:00:24.109Z,100.00
2023-05-10T08:02:50.678Z,100.00
2023-05-10T08:05:17.435Z,100.00
2023-05-10T08:07:44.047Z,100.00
2023-05-10T08:10:12.126Z,100.00
2023-05-10T08:12:39.266Z,100.00
2023-05-10T08:15:06.554Z,100.00
2023-05-10T08:17:33.502Z,100.00
2023-05-10T08:19:59.954Z,100.00
2023-05-10T08:22:27.031Z,100.00
2023-05-10T08:24:53.410Z,100.00
2023-05-10T08:27:19.856Z,100.00
2023-05-10T08:29:50.093Z,100.00
2023-05-10T08:32:16.991Z,100.00
2023-05-10T08:34:43.467Z,100.00
2023-05-10T08:37:11.452Z,100.00
2023-05-10T08:39:38.453Z,100.00
2023-05-10T08:42:05.683Z,100.00
2023-05-10T08:44:35.175Z,100.00
2023-05-10T08:47:05.609Z,100.00
2023-05-10T08:49:33.745Z,100.00
2023-05-10T08:52:04.564Z,100.00
2023-05-10T08:54:33.049Z,100.00
2023-05-10T08:56:59.599Z,100.00
2023-05-10T08:59:26.194Z,100.00
2023-05-10T09:01:54.902Z,100.00
2023-05-10T09:04:21.964Z,100.00
2023-05-10T09:06:48.888Z,100.00
2023-05-10T09:09:17.086Z,100.00
2023-05-10T09:11:44.462Z,100.00
2023-05-10T09:14:13.331Z,100.00
2023-05-10T09:16:40.761Z,100.00
2023-05-10T09:19:08.301Z,100.00
2023-05-10T09:21:39.071Z,100.00
2023-05-10T09:24:06.401Z,100.00
2023-05-10T09:26:32.846Z,100.00
2023-05-10T09:29:01.176Z,100.00
2023-05-10T09:31:47.804Z,100.00
2023-05-10T09:34:21.969Z,100.00
2023-05-10T09:36:53.031Z,100.00
2023-05-10T09:39:19.604Z,100.00
2023-05-10T09:41:45.968Z,100.00
2023-05-10T09:44:12.393Z,100.00
2023-05-10T09:46:39.018Z,100.00
2023-05-10T09:49:06.501Z,100.00
2023-05-10T09:51:35.058Z,100.00
2023-05-10T09:54:14.661Z,100.00
2023-05-10T09:56:42.056Z,100.00
2023-05-10T09:59:13.096Z,100.00
2023-05-10T10:01:40.299Z,100.00
2023-05-10T10:04:10.023Z,100.00
2023-05-10T10:06:40.856Z,100.00
2023-05-10T10:09:08.447Z,100.00
2023-05-10T10:11:37.304Z,100.00
2023-05-10T10:14:03.847Z,100.00
2023-05-10T10:16:31.440Z,100.00
2023-05-10T10:18:58.450Z,100.00
2023-05-10T10:21:26.087Z,100.00
2023-05-10T10:23:52.694Z,100.00
2023-05-10T10:26:23.757Z,100.00
2023-05-10T10:29:03.921Z,100.00
2023-05-10T10:31:48.270Z,100.00
2023-05-10T10:34:41.480Z,100.00
2023-05-10T10:37:08.097Z,100.00
2023-05-10T10:39:37.615Z,100.00
2023-05-10T10:42:05.597Z,100.00
2023-05-10T10:44:34.461Z,100.00
2023-05-10T10:47:14.140Z,100.00
2023-05-10T10:49:58.601Z,100.00
2023-05-10T10:52:39.273Z,100.00
2023-05-10T10:55:13.650Z,100.00
2023-05-10T10:57:48.510Z,100.00
2023-05-10T11:00:29.329Z,100.00
2023-05-10T11:03:03.527Z,100.00
2023-05-10T11:05:30.046Z,100.00
2023-05-10T11:07:58.486Z,100.00
2023-05-10T11:10:25.813Z,100.00
2023-05-10T11:13:02.099Z,100.00
2023-05-10T11:15:36.725Z,100.00
2023-05-10T11:18:29.595Z,100.00
2023-05-10T11:21:03.611Z,100.00
2023-05-10T11:23:49.118Z,100.00
2023-05-10T11:26:16.359Z,100.00
2023-05-10T11:28:47.191Z,100.00
2023-05-10T11:31:18.934Z,100.00
2023-05-10T11:33:45.985Z,100.00
2023-05-10T11:36:17.807Z,100.00
2023-05-10T11:38:44.620Z,100.00
2023-05-10T11:41:13.248Z,98.75
2023-05-10T11:43:41.026Z,97.43
2023-05-10T11:46:10.500Z,96.60
2023-05-10T11:48:37.699Z,97.03
2023-05-10T11:51:04.192Z,96.27
2023-05-10T11:53:32.865Z,96.88
2023-05-10T11:56:07.497Z,96.28
2023-05-10T11:58:34.824Z,97.57
2023-05-10T12:01:01.703Z,98.97
2023-05-10T12:03:29.183Z,98.64
2023-05-10T12:05:56.994Z,100.00
2023-05-10T12:08:25.887Z,99.39
2023-05-10T12:10:53.125Z,98.95
2023-05-10T12:13:21.452Z,98.52
2023-05-10T12:15:49.038Z,98.12
2023-05-10T12:18:16.079Z,99.13
2023-05-10T12:20:42.609Z,96.83
2023-05-10T12:23:10.870Z,96.67
2023-05-10T12:25:38.778Z,94.46
2023-05-10T12:28:10.018Z,94.81
2023-05-10T12:30:37.405Z,95.86
2023-05-10T12:33:16.076Z,92.69
2023-05-10T12:35:48.434Z,90.87
2023-05-10T12:38:35.509Z,90.41
2023-05-10T12:41:10.873Z,90.33
2023-05-10T12:43:38.143Z,89.19
2023-05-10T12:46:09.307Z,88.34
2023-05-10T12:48:37.255Z,91.88
2023-05-10T12:51:04.688Z,91.52
2023-05-10T12:53:31.367Z,91.59
2023-05-10T12:55:58.251Z,87.35
2023-05-10T12:58:34.933Z,88.98
2023-05-10T13:01:02.514Z,88.38
2023-05-10T13:03:28.909Z,88.95
2023-05-10T13:05:55.561Z,89.28
2023-05-10T13:08:22.004Z,89.38
2023-05-10T13:10:48.708Z,89.50
2023-05-10T13:13:16.062Z,90.56
2023-05-10T13:15:42.647Z,93.87
2023-05-10T13:18:09.283Z,96.91
2023-05-10T13:20:35.980Z,99.08
2023-05-10T13:23:03.504Z,100.00
2023-05-10T13:25:30.118Z,100.00
2023-05-10T13:27:56.459Z,100.00
2023-05-10T13:30:23.058Z,100.00
2023-05-10T13:32:49.480Z,100.00
2023-05-10T13:35:16.491Z,100.00
2023-05-10T13:37:42.944Z,100.00
2023-05-10T13:40:09.633Z,100.00
2023-05-10T13:42:36.017Z,100.00
2023-05-10T13:45:02.752Z,100.00
2023-05-10T13:47:29.182Z,100.00
2023-05-10T13:49:55.588Z,100.00
2023-05-10T13:52:22.115Z,100.00
2023-05-10T13:54:48.569Z,100.00
2023-05-10T13:57:15.045Z,100.00
2023-05-10T13:59:41.418Z,100.00
2023-05-10T14:02:07.805Z,100.00
2023-05-10T14:04:36.313Z,100.00
2023-05-10T14:07:02.864Z,100.00
2023-05-10T14:09:29.265Z,100.00
2023-05-10T14:11:56.802Z,100.00
2023-05-10T14:14:23.153Z,100.00
2023-05-10T14:16:49.692Z,100.00
2023-05-10T14:19:16.255Z,100.00
2023-05-10T14:21:42.662Z,100.00
2023-05-10T14:24:10.108Z,100.00
2023-05-10T14:26:36.618Z,100.00
2023-05-10T14:29:03.218Z,100.00
2023-05-10T14:31:31.206Z,100.00
2023-05-10T14:33:58.651Z,100.00
2023-05-10T14:36:27.327Z,100.00
2023-05-10T14:38:53.701Z,100.00
2023-05-10T14:41:20.221Z,100.00
2023-05-10T14:43:46.920Z,100.00
2023-05-10T14:46:13.686Z,100.00
2023-05-10T14:48:40.327Z,100.00
2023-05-10T14:51:07.374Z,100.00
2023-05-10T14:53:33.810Z,100.00
2023-05-10T14:56:03.880Z,100.00
2023-05-10T14:58:34.018Z,100.00
2023-05-10T15:01:00.834Z,100.00
2023-05-10T15:03:27.924Z,100.00
2023-05-10T15:05:54.870Z,100.00
2023-05-10T15:08:21.643Z,100.00
2023-05-10T15:10:48.585Z,100.00
2023-05-10T15:13:15.169Z,100.00
2023-05-10T15:15:41.649Z,100.00
2023-05-10T15:18:08.104Z,100.00
2023-05-10T15:20:34.653Z,100.00
2023-05-10T15:23:01.544Z,100.00
2023-05-10T15:25:28.668Z,100.00
2023-05-10T15:27:55.350Z,100.00
2023-05-10T15:30:22.247Z,100.00
2023-05-10T15:32:48.599Z,100.00
2023-05-10T15:35:15.412Z,100.00
2023-05-10T15:37:41.902Z,100.00
2023-05-10T15:40:08.678Z,100.00
2023-05-10T15:42:35.172Z,100.00
2023-05-10T15:45:01.625Z,100.00
2023-05-10T15:47:31.156Z,100.00
2023-05-10T15:49:57.549Z,100.00
2023-05-10T15:52:24.319Z,100.00
2023-05-10T15:54:51.236Z,100.00
2023-05-10T15:57:17.781Z,100.00
2023-05-10T15:59:44.281Z,100.00
2023-05-10T16:02:13.276Z,100.00
2023-05-10T16:04:39.697Z,100.00
2023-05-10T16:07:06.187Z,100.00
2023-05-10T16:09:32.658Z,100.00
2023-05-10T16:11:59.056Z,100.00
2023-05-10T16:14:25.460Z,100.00
2023-05-10T16:16:52.227Z,100.00
2023-05-10T16:19:18.997Z,100.00
2023-05-10T16:21:45.483Z,100.00
2023-05-10T16:24:12.116Z,100.00
2023-05-10T16:26:40.977Z,100.00
2023-05-10T16:29:10.494Z,100.00
2023-05-10T16:31:36.961Z,100.00
2023-05-10T16:34:03.445Z,100.00
2023-05-10T16:36:31.157Z,100.00
2023-05-10T16:38:57.557Z,100.00
2023-05-10T16:41:23.988Z,100.00
2023-05-10T16:43:50.458Z,100.00
2023-05-10T16:46:17.092Z,100.00
2023-05-10T16:48:43.829Z,100.00
2023-05-10T16:51:10.226Z,100.00
2023-05-10T16:53:36.614Z,100.00
2023-05-10T16:56:04.275Z,100.00
2023-05-10T16:58:30.752Z,100.00
2023-05-10T17:00:57.205Z,100.00
2023-05-10T17:03:23.704Z,100.00
2023-05-10T17:05:50.478Z,100.00
2023-05-10T17:08:17.143Z,100.00
2023-05-10T17:10:43.666Z,100.00
2023-05-10T17:13:10.859Z,100.00
2023-05-10T17:15:38.553Z,100.00
2023-05-10T17:18:05.453Z,100.00
2023-05-10T17:20:31.953Z,100.00
2023-05-10T17:22:58.488Z,100.00
2023-05-10T17:25:25.019Z,99.54
2023-05-10T17:27:51.439Z,100.00
2023-05-10T17:30:22.582Z,100.00
2023-05-10T17:32:49.264Z,100.00
2023-05-10T17:35:16.243Z,100.00
2023-05-10T17:37:44.135Z,100.00
2023-05-10T17:40:11.454Z,100.00
2023-05-10T17:42:37.915Z,100.00
2023-05-10T17:45:04.887Z,100.00
2023-05-10T17:47:31.396Z,100.00
2023-05-10T17:49:57.787Z,100.00
2023-05-10T17:52:24.166Z,100.00
2023-05-10T17:54:50.580Z,100.00
2023-05-10T17:57:17.294Z,100.00
2023-05-10T17:59:43.736Z,100.00
2023-05-10T18:02:10.306Z,100.00
2023-05-10T18:04:39.839Z,100.00
2023-05-10T18:07:06.680Z,100.00
2023-05-10T18:09:34.093Z,100.00
2023-05-10T18:12:03.981Z,100.00
2023-05-10T18:14:39.758Z,100.00
2023-05-10T18:17:08.384Z,100.00
2023-05-10T18:19:34.932Z,100.00
2023-05-10T18:22:01.321Z,100.00
2023-05-10T18:24:39.277Z,100.00
2023-05-10T18:27:08.738Z,100.00
2023-05-10T18:29:36.257Z,100.00
2023-05-10T18:32:02.854Z,100.00
2023-05-10T18:34:29.314Z,100.00
2023-05-10T18:36:56.255Z,100.00
2023-05-10T18:39:22.770Z,100.00
2023-05-10T18:41:50.141Z,100.00
2023-05-10T18:44:16.713Z,100.00
2023-05-10T18:46:43.401Z,100.00
2023-05-10T18:49:09.981Z,100.00
2023-05-10T18:51:36.548Z,100.00
2023-05-10T18:54:03.506Z,100.00
2023-05-10T18:56:30.038Z,100.00
2023-05-10T18:58:56.568Z,100.00
2023-05-10T19:01:22.998Z,100.00
2023-05-10T19:03:49.423Z,100.00
2023-05-10T19:06:15.914Z,100.00
2023-05-10T19:08:42.392Z,100.00
2023-05-10T19:11:09.070Z,100.00
2023-05-10T19:13:35.598Z,100.00
2023-05-10T19:16:15.958Z,100.00
2023-05-10T19:18:44.073Z,100.00
2023-05-10T19:21:11.452Z,100.00
2023-05-10T19:23:40.306Z,100.00
2023-05-10T19:26:07.115Z,100.00
2023-05-10T19:28:34.901Z,100.00
2023-05-10T19:31:01.717Z,100.00
2023-05-10T19:33:28.707Z,100.00
2023-05-10T19:35:55.553Z,100.00
2023-05-10T19:38:23.159Z,100.00
2023-05-10T19:40:58.139Z,100.00
2023-05-10T19:43:25.954Z,100.00
2023-05-10T19:45:52.859Z,100.00
2023-05-10T19:48:19.349Z,100.00
2023-05-10T19:50:45.892Z,100.00
2023-05-10T19:53:12.432Z,100.00
2023-05-10T19:55:39.028Z,100.00
2023-05-10T19:58:05.719Z,100.00
2023-05-10T20:00:32.248Z,100.00
2023-05-10T20:02:58.829Z,100.00
2023-05-10T20:05:25.614Z,100.00
2023-05-10T20:07:52.145Z,100.00
2023-05-10T20:10:19.055Z,100.00
2023-05-10T20:12:51.277Z,100.00
2023-05-10T20:15:20.095Z,100.00
2023-05-10T20:17:47.497Z,100.00
2023-05-10T20:20:15.837Z,100.00
2023-05-10T20:22:45.207Z,100.00
2023-05-10T20:25:12.377Z,100.00
2023-05-10T20:27:38.973Z,100.00
2023-05-10T20:30:06.250Z,100.00
2023-05-10T20:32:33.100Z,100.00
2023-05-10T20:34:59.989Z,100.00
2023-05-10T20:37:28.039Z,100.00
2023-05-10T20:39:55.000Z,100.00
2023-05-10T20:42:22.362Z,100.00
2023-05-10T20:44:49.367Z,100.00
2023-05-10T20:47:16.253Z,100.00
2023-05-10T20:49:42.977Z,100.00
2023-05-10T20:52:09.769Z,100.00
2023-05-10T20:54:36.186Z,100.00
2023-05-10T20:57:02.893Z,100.00
2023-05-10T20:59:29.400Z,100.00
2023-05-10T21:01:57.308Z,100.00
2023-05-10T21:04:24.592Z,100.00
2023-05-10T21:06:51.436Z,100.00
2023-05-10T21:09:17.926Z,100.00
2023-05-10T21:11:44.418Z,100.00
2023-05-10T21:14:10.935Z,100.00
2023-05-10T21:16:37.580Z,100.00
2023-05-10T21:19:04.128Z,100.00
2023-05-10T21:21:31.041Z,100.00
2023-05-10T21:23:57.507Z,100.00
2023-05-10T21:26:24.215Z,100.00
2023-05-10T21:28:50.658Z,100.00
2023-05-10T21:31:17.195Z,100.00
2023-05-10T21:33:43.756Z,100.00
2023-05-10T21:36:10.468Z,100.00
2023-05-10T21:38:36.986Z,100.00
2023-05-10T21:41:07.856Z,100.00
2023-05-10T21:43:34.160Z,100.00
2023-05-10T21:46:01.013Z,100.00
2023-05-10T21:48:27.543Z,100.00
2023-05-10T21:50:53.981Z,100.00
2023-05-10T21:53:20.601Z,100.00
2023-05-10T21:55:48.115Z,100.00
2023-05-10T21:58:14.618Z,100.00
2023-05-10T22:00:41.018Z,100.00
2023-05-10T22:03:07.470Z,100.00
2023-05-10T22:05:34.311Z,100.00
2023-05-10T22:08:00.980Z,100.00
2023-05-10T22:10:27.546Z,100.00
2023-05-10T22:12:53.997Z,100.00
2023-05-10T22:15:20.511Z,100.00
2023-05-10T22:17:47.001Z,100.00
2023-05-10T22:20:13.795Z,100.00
2023-05-10T22:22:40.289Z,100.00
2023-05-10T22:25:07.751Z,100.00
2023-05-10T22:27:34.560Z,100.00
2023-05-10T22:30:01.530Z,100.00
2023-05-10T22:32:28.391Z,100.00
2023-05-10T22:34:55.087Z,100.00
2023-05-10T22:37:21.527Z,100.00
2023-05-10T22:39:48.561Z,100.00
2023-05-10T22:42:15.247Z,100.00
2023-05-10T22:44:42.741Z,100.00
2023-05-10T22:47:09.411Z,100.00
2023-05-10T22:49:36.114Z,100.00
2023-05-10T22:52:02.776Z,100.00
2023-05-10T22:54:29.217Z,100.00
2023-05-10T22:56:56.501Z,100.00
2023-05-10T22:59:23.401Z,100.00
2023-05-10T23:01:50.095Z,100.00
2023-05-10T23:04:16.576Z,100.00
2023-05-10T23:06:43.174Z,100.00
2023-05-10T23:09:09.723Z,100.00
2023-05-10T23:11:36.141Z,100.00
2023-05-10T23:14:02.734Z,100.00
2023-05-10T23:16:29.546Z,100.00
2023-05-10T23:18:56.156Z,100.00
2023-05-10T23:21:22.715Z,100.00
2023-05-10T23:23:49.330Z,100.00
2023-05-10T23:26:16.256Z,100.00
2023-05-10T23:28:42.655Z,100.00
2023-05-10T23:31:09.192Z,100.00
2023-05-10T23:33:35.668Z,100.00
2023-05-10T23:36:02.195Z,100.00
2023-05-10T23:38:28.673Z,100.00
2023-05-10T23:40:55.117Z,100.00
2023-05-10T23:43:21.832Z,100.00
2023-05-10T23:45:55.221Z,100.00
2023-05-10T23:48:21.858Z,100.00
2023-05-10T23:50:48.469Z,100.00
2023-05-10T23:53:15.286Z,100.00
2023-05-10T23:55:42.287Z,100.00
2023-05-10T23:58:08.767Z,100.00
